createdAt,value
2018-11-04T00:10:40.367Z,9.70
2018-11-04T00:15:50.174Z,9.70
2018-11-04T00:20:47.750Z,9.80
2018-11-04T00:25:46.253Z,9.70
2018-11-04T00:30:44.753Z,9.80
2018-11-04T00:35:42.988Z,9.80
2018-11-04T00:40:44.745Z,9.80
2018-11-04T00:45:48.658Z,9.80
2018-11-04T00:50:45.439Z,9.80
2018-11-04T00:55:54.241Z,9.70
2018-11-04T01:00:52.515Z,9.60
2018-11-04T01:05:50.019Z,9.70
2018-11-04T01:10:49.352Z,9.70
2018-11-04T01:15:46.895Z,9.70
2018-11-04T01:20:45.493Z,9.60
2018-11-04T01:25:41.414Z,9.60
2018-11-04T01:30:43.871Z,9.70
2018-11-04T01:35:40.206Z,9.70
2018-11-04T01:40:38.683Z,9.70
2018-11-04T01:45:34.647Z,9.80
2018-11-04T01:50:33.315Z,9.80
2018-11-04T01:55:33.759Z,9.70
2018-11-04T02:00:34.396Z,9.70
2018-11-04T02:05:30.501Z,9.60
2018-11-04T02:10:33.762Z,9.60
2018-11-04T02:15:40.144Z,9.60
2018-11-04T02:20:41.036Z,9.60
2018-11-04T02:25:42.046Z,9.70
2018-11-04T02:30:40.398Z,9.70
2018-11-04T02:35:40.277Z,9.60
2018-11-04T02:40:37.758Z,9.70
2018-11-04T02:45:35.406Z,9.70
2018-11-04T02:50:33.717Z,9.70
2018-11-04T02:55:35.433Z,9.80
2018-11-04T03:00:31.255Z,9.80
2018-11-04T03:05:28.976Z,9.70
2018-11-04T03:10:29.633Z,9.70
2018-11-04T03:15:25.226Z,9.70
2018-11-04T03:20:23.167Z,9.70
2018-11-04T03:25:22.329Z,9.60
2018-11-04T03:30:20.449Z,9.60
2018-11-04T03:35:22.229Z,9.70
2018-11-04T03:40:22.033Z,9.80
2018-11-04T03:45:17.324Z,9.70
2018-11-04T03:50:13.523Z,9.70
2018-11-04T03:55:10.555Z,9.60
2018-11-04T04:00:07.626Z,9.60
2018-11-04T04:05:06.235Z,9.60
2018-11-04T04:10:07.664Z,9.60
2018-11-04T04:15:03.179Z,9.60
2018-11-04T04:20:00.230Z,9.60
2018-11-04T04:25:01.309Z,9.60
2018-11-04T04:29:59.118Z,9.60
2018-11-04T04:34:57.691Z,9.60
2018-11-04T04:39:53.759Z,9.50
2018-11-04T04:44:51.643Z,9.60
2018-11-04T04:49:49.460Z,9.60
2018-11-04T04:59:51.470Z,9.50
2018-11-04T05:04:47.671Z,9.40
2018-11-04T05:09:50.109Z,9.50
2018-11-04T05:14:50.557Z,9.50
2018-11-04T05:19:46.732Z,9.50
2018-11-04T05:24:42.291Z,9.50
2018-11-04T05:29:44.771Z,9.50
2018-11-04T05:34:45.391Z,9.50
2018-11-04T05:39:43.194Z,9.40
2018-11-04T05:44:46.883Z,9.40
2018-11-04T05:49:42.997Z,9.50
2018-11-04T05:54:38.750Z,9.50
2018-11-04T05:59:35.123Z,9.50
2018-11-04T06:04:32.837Z,9.50
2018-11-04T06:09:31.344Z,9.50
2018-11-04T06:14:29.710Z,9.50
2018-11-04T06:19:29.359Z,9.40
2018-11-04T06:24:29.786Z,9.50
2018-11-04T06:29:25.673Z,9.50
2018-11-04T06:34:23.606Z,9.50
2018-11-04T06:39:19.280Z,9.50
2018-11-04T06:44:17.448Z,9.50
2018-11-04T06:49:15.490Z,9.50
2018-11-04T06:54:14.670Z,9.50
2018-11-04T06:59:15.689Z,9.50
2018-11-04T07:04:22.103Z,9.50
2018-11-04T07:09:18.658Z,9.50
2018-11-04T07:14:15.010Z,9.50
2018-11-04T07:19:36.538Z,9.50
2018-11-04T07:24:39.350Z,9.50
2018-11-04T07:29:42.846Z,9.50
2018-11-04T07:34:50.600Z,9.50
2018-11-04T07:39:48.281Z,9.50
2018-11-04T07:44:48.133Z,9.50
2018-11-04T07:49:53.930Z,9.60
2018-11-04T07:54:55.534Z,9.70
2018-11-04T08:00:02.193Z,9.70
2018-11-04T08:05:00.126Z,9.80
2018-11-04T08:09:59.051Z,9.90
2018-11-04T08:14:57.184Z,9.90
2018-11-04T08:19:55.964Z,9.90
2018-11-04T08:25:03.363Z,9.80
2018-11-04T08:30:01.113Z,9.80
2018-11-04T08:34:59.432Z,9.80
2018-11-04T08:39:56.597Z,9.70
2018-11-04T08:44:54.567Z,9.70
2018-11-04T08:49:50.406Z,9.70
2018-11-04T08:54:48.548Z,9.70
2018-11-04T09:05:12.299Z,9.60
2018-11-04T09:10:16.992Z,9.70
2018-11-04T09:21:07.960Z,9.70
2018-11-04T09:26:31.391Z,9.70
2018-11-04T09:31:26.920Z,9.80
2018-11-04T09:36:25.162Z,9.80
2018-11-04T09:46:45.583Z,9.90
2018-11-04T09:51:41.149Z,10.00
2018-11-04T09:57:21.850Z,10.00
2018-11-04T10:02:25.484Z,10.00
2018-11-04T10:07:36.050Z,10.10
2018-11-04T10:51:59.689Z,10.10
2018-11-04T10:57:00.304Z,10.10
2018-11-04T11:18:55.035Z,10.10
2018-11-04T11:29:28.483Z,10.10
2018-11-04T11:34:46.537Z,10.10
2018-11-04T11:39:59.795Z,10.10
2018-11-04T11:45:00.611Z,10.20
2018-11-04T11:50:20.734Z,10.20
2018-11-04T11:55:22.986Z,10.20
2018-11-04T12:00:25.805Z,10.10
2018-11-04T12:10:50.390Z,10.00
2018-11-04T12:15:55.035Z,10.00
2018-11-04T12:20:51.646Z,10.00
2018-11-04T12:25:49.609Z,10.00
2018-11-04T12:30:51.316Z,10.10
2018-11-04T12:35:47.559Z,10.10
2018-11-04T12:40:57.536Z,10.10
2018-11-04T12:45:57.153Z,10.10
2018-11-04T12:50:55.381Z,10.10
2018-11-04T12:55:59.277Z,10.10
2018-11-04T13:01:03.116Z,10.20
2018-11-04T13:06:00.161Z,10.20
2018-11-04T13:11:01.306Z,10.20
2018-11-04T13:15:58.666Z,10.20
2018-11-04T13:20:55.021Z,10.20
2018-11-04T13:25:56.042Z,10.30
2018-11-04T13:30:55.572Z,10.30
2018-11-04T13:35:52.667Z,10.20
2018-11-04T13:40:54.960Z,10.20
2018-11-04T13:45:57.768Z,10.20
2018-11-04T13:50:59.717Z,10.20
2018-11-04T13:55:55.490Z,10.20
2018-11-04T14:01:11.680Z,10.20
2018-11-04T14:06:16.307Z,10.30
2018-11-04T14:11:11.987Z,10.30
2018-11-04T14:16:30.604Z,10.30
2018-11-04T14:21:50.527Z,10.30
2018-11-04T14:48:39.633Z,10.30
2018-11-04T14:53:39.669Z,10.10
2018-11-04T14:58:39.651Z,10.00
2018-11-04T15:03:35.614Z,10.00
2018-11-04T15:08:31.362Z,9.90
2018-11-04T15:13:30.992Z,9.90
2018-11-04T15:18:33.596Z,9.90
2018-11-04T15:23:35.426Z,9.80
2018-11-04T15:28:30.860Z,9.80
2018-11-04T15:33:26.013Z,9.70
2018-11-04T15:38:21.571Z,9.70
2018-11-04T15:43:17.148Z,9.60
2018-11-04T15:48:12.680Z,9.50
2018-11-04T15:53:14.165Z,9.50
2018-11-04T15:58:09.441Z,9.40
2018-11-04T16:03:05.818Z,9.40
2018-11-04T16:08:01.490Z,9.30
2018-11-04T16:12:56.740Z,9.30
2018-11-04T16:17:52.217Z,9.10
2018-11-04T16:22:47.528Z,9.10
2018-11-04T16:27:43.238Z,9.10
2018-11-04T16:32:38.865Z,9.00
2018-11-04T16:37:50.952Z,9.00
2018-11-04T16:42:47.036Z,9.10
2018-11-04T16:47:46.777Z,9.10
2018-11-04T16:52:43.108Z,9.00
2018-11-04T16:57:39.492Z,9.10
2018-11-04T17:02:40.942Z,9.20
2018-11-04T17:07:37.288Z,9.20
2018-11-04T17:12:32.908Z,9.20
2018-11-04T17:17:28.586Z,9.20
2018-11-04T17:22:24.393Z,9.20
2018-11-04T17:27:20.210Z,9.20
2018-11-04T17:32:25.067Z,9.20
2018-11-04T17:37:21.755Z,9.20
2018-11-04T17:42:17.154Z,9.20
2018-11-04T17:47:12.573Z,9.20
2018-11-04T17:52:07.970Z,9.20
2018-11-04T17:57:03.985Z,9.20
2018-11-04T18:01:59.309Z,9.10
2018-11-04T18:06:54.835Z,9.10
2018-11-04T18:11:52.755Z,9.20
2018-11-04T18:16:48.406Z,9.10
2018-11-04T18:21:47.471Z,9.00
2018-11-04T18:26:44.745Z,9.00
2018-11-04T18:31:40.541Z,9.10
2018-11-04T18:36:41.288Z,9.10
2018-11-04T18:41:38.995Z,9.10
2018-11-04T18:46:34.762Z,9.20
2018-11-04T18:51:31.523Z,9.20
2018-11-04T18:56:27.385Z,9.20
2018-11-04T19:01:25.871Z,9.20
2018-11-04T19:06:21.563Z,9.20
2018-11-04T19:11:17.322Z,9.20
2018-11-04T19:16:12.534Z,9.10
2018-11-04T19:21:08.413Z,9.00
2018-11-04T19:26:06.691Z,8.90
2018-11-04T19:31:16.735Z,8.70
2018-11-04T19:36:18.000Z,8.80
2018-11-04T19:41:15.985Z,8.80
2018-11-04T19:46:11.226Z,8.80
2018-11-04T19:51:09.124Z,8.70
2018-11-04T19:56:04.629Z,8.50
2018-11-04T20:01:00.955Z,8.30
2018-11-04T20:06:04.751Z,8.40
2018-11-04T20:11:33.635Z,8.50
2018-11-04T20:16:40.351Z,8.60
2018-11-04T20:21:36.980Z,8.60
2018-11-04T20:26:51.064Z,8.60
2018-11-04T20:31:51.613Z,8.60
2018-11-04T20:36:48.497Z,8.40
2018-11-04T20:41:44.695Z,8.40
2018-11-04T20:46:40.195Z,8.50
2018-11-04T20:51:35.742Z,8.50
2018-11-04T20:56:36.995Z,8.40
2018-11-04T21:01:32.466Z,8.30
2018-11-04T21:06:28.302Z,8.20
2018-11-04T21:11:23.744Z,8.10
2018-11-04T21:16:19.314Z,7.80
2018-11-04T21:21:14.643Z,7.80
2018-11-04T21:26:09.844Z,8.00
2018-11-04T21:31:05.836Z,8.00
2018-11-04T21:36:02.634Z,8.00
2018-11-04T21:46:11.221Z,7.60
2018-11-04T21:51:09.881Z,7.70
2018-11-04T21:56:10.892Z,7.80
2018-11-04T22:01:14.330Z,7.90
2018-11-04T22:06:10.200Z,8.00
2018-11-04T22:16:13.638Z,7.90
2018-11-04T22:21:11.864Z,8.00
2018-11-04T22:26:07.762Z,8.00
2018-11-04T22:31:06.585Z,8.00
2018-11-04T22:36:02.111Z,8.10
2018-11-04T22:40:57.468Z,8.00
2018-11-04T22:45:53.615Z,8.00
2018-11-04T22:50:52.937Z,7.90
2018-11-04T22:55:49.508Z,7.80
2018-11-04T23:00:46.219Z,7.80
2018-11-04T23:05:42.139Z,7.60
2018-11-04T23:10:37.687Z,7.60
2018-11-04T23:15:33.478Z,7.70
2018-11-04T23:20:28.769Z,7.70
2018-11-04T23:25:35.272Z,7.60
2018-11-04T23:30:30.679Z,7.50
2018-11-04T23:35:25.930Z,7.50
2018-11-04T23:40:21.388Z,7.50
2018-11-04T23:45:16.711Z,7.50
2018-11-04T23:50:15.359Z,7.50
2018-11-04T23:55:12.907Z,7.40
